Lamar — WDE7053 — position and weather

sailwx.info

Track history (hours):
 
Tides and Currents Weather Stations Pressure Air Temp Water Temp Dewpoint Dewpoint Depression Visibility Wind Speed Wind Dir Waves Ship Positions

Lamar

Owner: G & H Towing Company, Galveston, TX. More information available from US FCC via Universal Licensing System and Coast Guard Vessel Documentation Center.

Last reported at 2018-Apr-20 05:00 UTC. Time now 2018-Apr-20 05:04 UTC.
Position N 29°45' W 095°07'.

Length 30 m; draft 6.5 m.

Type: Tug. MMSI: 367388340.

Date/timePositionNaut miles runAvg speedWind from/ knotsBaromVisibWave heightAir tempDewpointWater temp
2018-Apr-20 05:00N 29°45' W 095°07'0 0.0
2018-Apr-20 04:00N 29°45' W 095°07'0 0.0
2018-Apr-20 03:22N 29°45' W 095°07'1 1.3
2018-Apr-20 02:26N 29°45' W 095°06'2 4.3
2018-Apr-20 01:56N 29°44' W 095°03'2 1.1
2018-Apr-20 00:18N 29°44' W 095°01'1 1.5
2018-Apr-19 23:56N 29°43' W 095°01'1 2.2
2018-Apr-19 23:30N 29°42' W 095°01'0 0.0
2018-Apr-19 22:55N 29°42' W 095°01'0 0.0
2018-Apr-19 22:30N 29°42' W 095°01'2 4.8
2018-Apr-19 22:00N 29°41' W 094°59'4 6.9
2018-Apr-19 21:30N 29°44' W 095°01'3 6.7
2018-Apr-19 20:58N 29°46' W 095°05'3 4.9
2018-Apr-19 20:25N 29°44' W 095°07'0 0.3
2018-Apr-19 19:44N 29°44' W 095°07'0 0.2
2018-Apr-19 17:36N 29°44' W 095°07'0 0.0
2018-Apr-19 17:19N 29°44' W 095°07'1 1.7
2018-Apr-19 17:00N 29°44' W 095°08'0 0.2
2018-Apr-19 16:30N 29°44' W 095°08'1 1.8
2018-Apr-19 15:57N 29°44' W 095°07'0 0.1
2018-Apr-19 15:02N 29°45' W 095°07'0 0.0
2018-Apr-19 14:44N 29°45' W 095°07'0 0.0
2018-Apr-19 08:37N 29°45' W 095°07'0 0.0
2018-Apr-19 08:31N 29°45' W 095°07'0 0.0
2018-Apr-19 08:00N 29°45' W 095°07'0 0.0
2018-Apr-19 07:30N 29°45' W 095°07'3 1.0
2018-Apr-19 04:36N 29°45' W 095°10'3 7.8
2018-Apr-19 04:15N 29°44' W 095°07'3 0.8
2018-Apr-19 00:23N 29°44' W 095°03'1 3.4
2018-Apr-19 00:00N 29°44' W 095°02'2 3.1
2018-Apr-18 23:28N 29°42' W 095°01'0 0.0
2018-Apr-18 22:34N 29°42' W 095°01'0 0.0
2018-Apr-18 22:19N 29°42' W 095°01'3 2.7
2018-Apr-18 21:24N 29°44' W 095°03'3 6.4
2018-Apr-18 21:00N 29°42' W 095°01'0 0.0
2018-Apr-18 20:28N 29°42' W 095°01'0 0.0
2018-Apr-18 19:58N 29°42' W 095°01'0 0.0
2018-Apr-18 19:22N 29°42' W 095°01'0 0.0
2018-Apr-18 18:10N 29°42' W 095°01'0 0.0
2018-Apr-18 17:48N 29°42' W 095°01'1 5.0
2018-Apr-18 17:30N 29°44' W 095°01'0 0.0
2018-Apr-18 16:59N 29°44' W 095°01'0 0.1
2018-Apr-18 16:30N 29°44' W 095°01'1 1.2
2018-Apr-18 16:00N 29°43' W 095°01'1 1.7
2018-Apr-18 15:30N 29°42' W 095°01'3 7.0
2018-Apr-18 15:01N 29°40' W 094°58'3 6.8
2018-Apr-18 14:30N 29°37' W 095°00'1 1.3
2018-Apr-18 14:00N 29°37' W 095°01'2 4.2
2018-Apr-18 13:31N 29°37' W 094°59'0 0.8
2018-Apr-18 13:00N 29°37' W 094°59'1 1.6
2018-Apr-18 12:29N 29°37' W 095°00'0 0.1
2018-Apr-18 12:00N 29°37' W 095°00'1 1.7
2018-Apr-18 11:30N 29°37' W 095°01'1 1.7
2018-Apr-18 11:01N 29°37' W 095°00'0 0.0
2018-Apr-18 10:28N 29°37' W 095°00'0 0.0
2018-Apr-18 09:58N 29°37' W 095°00'0 0.0
2018-Apr-18 09:28N 29°37' W 095°00'1 1.4
2018-Apr-18 08:59N 29°37' W 094°59'0 0.3
2018-Apr-18 08:30N 29°37' W 094°59'0 0.6
2018-Apr-18 07:48N 29°37' W 094°60'0 0.0
2018-Apr-18 07:12N 29°37' W 094°60'0 0.0
2018-Apr-18 06:57N 29°37' W 094°60'0 0.0
2018-Apr-18 05:57N 29°37' W 094°60'2 4.6
2018-Apr-18 05:30N 29°37' W 094°58'2 4.9
2018-Apr-18 05:00N 29°37' W 095°00'0 0.8
2018-Apr-18 04:29N 29°37' W 094°60'0 0.0
2018-Apr-18 03:59N 29°37' W 094°60'0 0.0
2018-Apr-18 03:23N 29°37' W 094°60'0 0.0
2018-Apr-18 03:01N 29°37' W 094°60'0 0.0
2018-Apr-18 02:30N 29°37' W 094°60'0 0.1
2018-Apr-18 02:01N 29°37' W 094°60'4 7.8
2018-Apr-18 01:31N 29°41' W 094°59'4 4.7
2018-Apr-18 00:41N 29°44' W 095°01'0 1.5
2018-Apr-18 00:29N 29°43' W 095°01'3 5.5
2018-Apr-18 00:01N 29°41' W 094°59'2 3.5
2018-Apr-17 23:30N 29°40' W 094°58'1 2.9
2018-Apr-17 23:00N 29°41' W 094°60'0 0.0
2018-Apr-17 22:30N 29°41' W 094°60'1 1.7
2018-Apr-17 22:01N 29°41' W 094°59'1 1.4
2018-Apr-17 21:31N 29°40' W 094°59'1 1.8
2018-Apr-17 20:47N 29°41' W 094°59'2 7.3
2018-Apr-17 20:30N 29°39' W 094°58'3 5.7
2018-Apr-17 20:00N 29°37' W 095°00'1 1.9
2018-Apr-17 19:30N 29°37' W 095°01'0 0.8
2018-Apr-17 19:00N 29°37' W 095°01'1 1.0
2018-Apr-17 18:30N 29°37' W 095°01'0 0.0
2018-Apr-17 18:00N 29°37' W 095°01'0 0.7
2018-Apr-17 17:30N 29°37' W 095°01'0 0.2
2018-Apr-17 17:00N 29°37' W 095°01'0 0.0
2018-Apr-17 16:30N 29°37' W 095°01'0 0.0
2018-Apr-17 16:00N 29°37' W 095°01'0 0.0
2018-Apr-17 15:30N 29°37' W 095°01'0 0.1
2018-Apr-17 15:00N 29°37' W 095°01'0 0.7
2018-Apr-17 14:30N 29°37' W 095°01'0 0.7
2018-Apr-17 13:58N 29°37' W 095°01'0 0.0
2018-Apr-17 13:28N 29°37' W 095°01'0 0.0
2018-Apr-17 12:58N 29°37' W 095°01'0 0.0
2018-Apr-17 12:28N 29°37' W 095°01'0 0.0
2018-Apr-17 11:58N 29°37' W 095°01'0 0.0
2018-Apr-17 11:28N 29°37' W 095°01'0 0.0
2018-Apr-17 11:01N 29°37' W 095°01'0 1.0
2018-Apr-17 10:31N 29°37' W 095°01'1 1.0
2018-Apr-17 10:00N 29°37' W 095°01'2 4.4
2018-Apr-17 09:30N 29°37' W 094°59'3 6.6
2018-Apr-17 09:01N 29°35' W 094°56'4 7.6
2018-Apr-17 08:30N 29°37' W 094°59'0 0.0
2018-Apr-17 08:00N 29°37' W 094°59'1 2.3
2018-Apr-17 07:31N 29°37' W 094°58'1 2.2
2018-Apr-17 07:00N 29°36' W 094°57'3 5.5
2018-Apr-17 06:28N 29°37' W 095°01'0 0.0
2018-Apr-17 05:55N 29°37' W 095°01'0 0.0
2018-Apr-17 05:28N 29°37' W 095°01'0 0.0
2018-Apr-17 04:58N 29°37' W 095°01'0 0.0
2018-Apr-17 04:28N 29°37' W 095°01'0 0.0
2018-Apr-17 03:58N 29°37' W 095°01'0 0.0
2018-Apr-17 03:28N 29°37' W 095°01'0 0.0
2018-Apr-17 02:58N 29°37' W 095°01'0 0.0
2018-Apr-17 02:28N 29°37' W 095°01'0 0.0
2018-Apr-17 01:58N 29°37' W 095°01'0 0.0
2018-Apr-17 01:28N 29°37' W 095°01'0 0.0
2018-Apr-17 00:55N 29°37' W 095°01'0 0.0
2018-Apr-17 00:28N 29°37' W 095°01'0 0.0
2018-Apr-16 23:58N 29°37' W 095°01'0 0.0
2018-Apr-16 23:28N 29°37' W 095°01'0 0.7
2018-Apr-16 23:01N 29°37' W 095°00'0 0.0
2018-Apr-16 22:30N 29°37' W 095°00'1 2.0
2018-Apr-16 22:00N 29°37' W 095°01'1 2.4
2018-Apr-16 21:30N 29°37' W 094°60'0 0.1
2018-Apr-16 21:00N 29°37' W 094°60'2 4.9
2018-Apr-16 20:30N 29°39' W 094°58'5 8.7
2018-Apr-16 19:59N 29°42' W 095°01'0 0.0
2018-Apr-16 19:24N 29°42' W 095°01'2 3.9
2018-Apr-16 19:00N 29°44' W 095°02'1 2.5
2018-Apr-16 18:30N 29°44' W 095°03'0 0.2
2018-Apr-16 18:01N 29°44' W 095°03'2 3.0
2018-Apr-16 17:30N 29°44' W 095°01'0 0.0
2018-Apr-16 16:56N 29°44' W 095°01'0 0.1
2018-Apr-16 15:48N 29°44' W 095°01'0 1.7
2018-Apr-16 15:31N 29°43' W 095°01'2 4.4
2018-Apr-16 15:00N 29°42' W 094°59'1 1.8
2018-Apr-16 14:30N 29°41' W 095°00'0 0.1
2018-Apr-16 14:00N 29°41' W 095°00'1 1.8
2018-Apr-16 13:30N 29°42' W 094°60'1 2.9
2018-Apr-16 13:00N 29°42' W 095°01'0 0.0
2018-Apr-16 12:27N 29°42' W 095°01'2 4.0
2018-Apr-16 12:00N 29°41' W 094°60'0 0.0
2018-Apr-16 11:30N 29°41' W 094°60'0 0.8
2018-Apr-16 11:00N 29°41' W 094°59'1 2.9
2018-Apr-16 10:30N 29°40' W 094°58'3 6.0
2018-Apr-16 10:00N 29°37' W 094°58'4 7.9
2018-Apr-16 09:30N 29°34' W 094°55'611.6
2018-Apr-16 09:00N 29°29' W 094°51'4 1.0
2018-Apr-16 04:25N 29°32' W 094°54'410.0
2018-Apr-16 04:00N 29°36' W 094°57'510.3
2018-Apr-16 03:30N 29°41' W 094°59'3 5.0
2018-Apr-16 03:00N 29°42' W 095°01'0 0.0
2018-Apr-16 02:30N 29°42' W 095°01'0 0.0
2018-Apr-16 01:57N 29°42' W 095°01'0 0.0
2018-Apr-16 01:30N 29°42' W 095°01'0 0.0
2018-Apr-16 01:00N 29°42' W 095°01'0 0.0
2018-Apr-16 00:30N 29°42' W 095°01'0 0.0
2018-Apr-16 00:00N 29°42' W 095°01'0 0.0
2018-Apr-15 23:30N 29°42' W 095°01'0 0.0
2018-Apr-15 23:00N 29°42' W 095°01'0 0.0
2018-Apr-15 22:30N 29°42' W 095°01'0 0.0
2018-Apr-15 21:54N 29°42' W 095°01'0 0.0
2018-Apr-15 21:19N 29°42' W 095°01'0 0.0
2018-Apr-15 21:00N 29°42' W 095°01'0 0.0
2018-Apr-15 20:24N 29°42' W 095°01'2 5.9
2018-Apr-15 20:00N 29°41' W 094°59'3 5.5
2018-Apr-15 19:30N 29°43' W 095°01'3 6.1
2018-Apr-15 19:00N 29°45' W 095°04'3 4.8
2018-Apr-15 18:28N 29°44' W 095°07'1 1.2
2018-Apr-15 17:57N 29°44' W 095°07'0 0.6
2018-Apr-15 17:29N 29°44' W 095°07'1 2.6
2018-Apr-15 17:00N 29°45' W 095°06'0 0.0
2018-Apr-15 16:28N 29°45' W 095°06'2 5.0
2018-Apr-15 15:58N 29°44' W 095°03'2 2.8
2018-Apr-15 15:23N 29°44' W 095°01'0 0.0
2018-Apr-15 14:52N 29°44' W 095°01'2 4.2
2018-Apr-15 14:31N 29°42' W 095°01'0 0.0
2018-Apr-15 13:58N 29°42' W 095°01'0 0.0
2018-Apr-15 13:31N 29°42' W 095°01'0 0.0
2018-Apr-15 13:00N 29°42' W 095°01'4 7.5
2018-Apr-15 12:30N 29°39' W 094°58'3 5.5
2018-Apr-15 11:58N 29°37' W 094°59'0 0.0
2018-Apr-15 10:58N 29°37' W 094°59'1 1.9
2018-Apr-15 10:30N 29°37' W 094°58'1 1.4
2018-Apr-15 10:00N 29°37' W 094°58'2 4.0
2018-Apr-15 09:30N 29°37' W 094°60'0 0.0
2018-Apr-15 09:00N 29°37' W 094°60'0 0.0
2018-Apr-15 08:30N 29°37' W 094°60'0 0.0
2018-Apr-15 07:54N 29°37' W 094°60'0 0.0
2018-Apr-15 07:27N 29°37' W 094°60'1 2.8
2018-Apr-15 07:01N 29°37' W 095°01'0 0.0
2018-Apr-15 06:31N 29°37' W 095°01'1 2.9
2018-Apr-15 06:01N 29°37' W 094°60'0 0.1
2018-Apr-15 04:35N 29°37' W 094°60'0 0.0
2018-Apr-15 04:17N 29°37' W 094°60'0 0.0
2018-Apr-15 03:56N 29°37' W 094°60'0 0.0
2018-Apr-15 03:29N 29°37' W 094°60'0 0.0
2018-Apr-15 02:56N 29°37' W 094°60'0 0.0
2018-Apr-15 02:29N 29°37' W 094°60'0 0.9
2018-Apr-15 02:00N 29°37' W 094°59'3 6.1
2018-Apr-15 01:30N 29°40' W 094°58'2 3.1
2018-Apr-15 01:00N 29°41' W 094°60'0 0.4
2018-Apr-15 00:04N 29°41' W 095°00'0 0.1
2018-Apr-14 23:58N 29°41' W 095°00'0 0.0
2018-Apr-14 23:25N 29°41' W 095°00'1 2.8
2018-Apr-14 23:00N 29°41' W 094°59'4 7.6
2018-Apr-14 22:30N 29°37' W 094°59'1 2.1
2018-Apr-14 22:00N 29°37' W 095°00'1 1.9
2018-Apr-14 21:30N 29°37' W 095°01'2 4.0
2018-Apr-14 21:00N 29°37' W 094°59'0 0.8
2018-Apr-14 20:30N 29°37' W 094°60'3 6.1
2018-Apr-14 20:00N 29°40' W 094°58'6 9.0
2018-Apr-14 19:24N 29°44' W 095°03'4 6.8
2018-Apr-14 18:53N 29°45' W 095°06'0 0.2
2018-Apr-14 17:50N 29°44' W 095°07'1 2.3
2018-Apr-14 17:20N 29°45' W 095°06'2 6.1
2018-Apr-14 16:58N 29°44' W 095°03'3 6.1
2018-Apr-14 16:30N 29°42' W 095°01'0 0.0
2018-Apr-14 15:59N 29°42' W 095°01'0 0.0
2018-Apr-14 15:30N 29°42' W 095°01'0 0.0
2018-Apr-14 15:00N 29°42' W 095°01'0 0.0
2018-Apr-14 14:30N 29°42' W 095°01'0 0.0
2018-Apr-14 14:00N 29°42' W 095°01'0 0.0
2018-Apr-14 13:30N 29°42' W 095°01'0 0.0
2018-Apr-14 12:59N 29°42' W 095°01'0 0.0
2018-Apr-14 12:30N 29°42' W 095°01'5 2.3
2018-Apr-14 10:11N 29°45' W 095°07'0 0.0
2018-Apr-14 09:56N 29°45' W 095°07'0 0.0
2018-Apr-14 09:29N 29°45' W 095°07'0 0.0
2018-Apr-14 00:06N 29°44' W 095°07'1 5.2
2018-Apr-14 00:00N 29°44' W 095°08'0 0.1
2018-Apr-13 23:08N 29°44' W 095°07'0 2.2
2018-Apr-13 23:00N 29°44' W 095°07'2 4.8
2018-Apr-13 22:30N 29°46' W 095°05'4 7.1
2018-Apr-13 22:00N 29°44' W 095°02'3 7.0
2018-Apr-13 21:30N 29°41' W 094°59'0 0.9
2018-Apr-13 21:00N 29°41' W 094°59'0 0.8
2018-Apr-13 20:29N 29°41' W 094°60'0 0.0
2018-Apr-13 19:59N 29°41' W 094°60'0 0.0
2018-Apr-13 19:29N 29°41' W 094°60'0 0.0
2018-Apr-13 18:59N 29°41' W 094°60'1 2.1
2018-Apr-13 18:30N 29°41' W 094°59'4 7.8
2018-Apr-13 18:00N 29°37' W 094°58'2 3.4
2018-Apr-13 17:30N 29°37' W 095°00'0 0.1
2018-Apr-13 17:00N 29°37' W 095°00'0 0.0
2018-Apr-13 16:29N 29°37' W 095°00'2 3.8
2018-Apr-13 16:00N 29°37' W 094°58'4 8.4
2018-Apr-13 15:30N 29°41' W 094°59'0 0.8
2018-Apr-13 14:58N 29°41' W 094°60'0 0.0
2018-Apr-13 14:28N 29°41' W 094°60'0 0.0
2018-Apr-13 13:58N 29°41' W 094°60'0 0.0
2018-Apr-13 13:28N 29°41' W 094°60'0 0.0
2018-Apr-13 12:58N 29°41' W 094°60'0 0.0
2018-Apr-13 12:29N 29°41' W 094°60'1 1.2
2018-Apr-13 11:59N 29°41' W 095°01'0 0.1
2018-Apr-13 11:26N 29°41' W 095°00'1 3.3
2018-Apr-13 11:00N 29°41' W 094°59'1 1.4
2018-Apr-13 10:25N 29°41' W 094°60'0 0.0
2018-Apr-13 09:58N 29°41' W 094°60'0 0.0
2018-Apr-13 09:22N 29°41' W 094°60'0 0.0
2018-Apr-13 08:58N 29°41' W 094°60'0 0.0
2018-Apr-13 08:19N 29°41' W 094°60'0 0.3
2018-Apr-13 08:00N 29°41' W 094°60'3 5.2
2018-Apr-13 07:30N 29°39' W 094°58'3 6.5
2018-Apr-13 07:00N 29°37' W 095°01'0 0.2
2018-Apr-13 06:29N 29°37' W 095°01'0 0.0
2018-Apr-13 05:59N 29°37' W 095°01'0 0.0
2018-Apr-13 05:29N 29°37' W 095°01'0 0.0
2018-Apr-13 04:59N 29°37' W 095°01'0 0.0
2018-Apr-13 04:29N 29°37' W 095°01'0 0.0
2018-Apr-13 03:59N 29°37' W 095°01'0 0.0
2018-Apr-13 03:29N 29°37' W 095°01'0 0.0
2018-Apr-13 02:59N 29°37' W 095°01'0 0.0
2018-Apr-13 02:29N 29°37' W 095°01'0 0.0
2018-Apr-13 01:59N 29°37' W 095°01'0 0.0
2018-Apr-13 01:29N 29°37' W 095°01'1 1.3
2018-Apr-13 01:00N 29°37' W 095°00'0 0.3
2018-Apr-13 00:30N 29°37' W 095°00'0 0.0
2018-Apr-13 00:00N 29°37' W 095°00'0 0.0
2018-Apr-12 23:30N 29°37' W 095°00'0 0.0
2018-Apr-12 23:00N 29°37' W 095°00'0 0.0
2018-Apr-12 22:30N 29°37' W 095°00'0 0.0
2018-Apr-12 22:00N 29°37' W 095°00'1 1.4
2018-Apr-12 21:30N 29°37' W 094°59'1 1.4
2018-Apr-12 21:00N 29°37' W 095°00'0 0.0
2018-Apr-12 20:30N 29°37' W 095°00'0 0.0
2018-Apr-12 20:00N 29°37' W 095°00'0 0.1
2018-Apr-12 19:30N 29°37' W 095°00'0 0.0
2018-Apr-12 19:00N 29°37' W 095°00'0 0.3
2018-Apr-12 18:30N 29°37' W 095°00'0 0.3
2018-Apr-12 18:00N 29°37' W 095°00'1 1.9
2018-Apr-12 17:30N 29°37' W 095°01'1 1.8
2018-Apr-12 17:01N 29°37' W 095°00'2 4.4
2018-Apr-12 16:30N 29°37' W 094°58'3 6.5
2018-Apr-12 16:00N 29°34' W 094°55'3 6.3
2018-Apr-12 15:30N 29°37' W 094°58'2 4.0
2018-Apr-12 14:58N 29°37' W 094°60'0 0.0
2018-Apr-12 14:28N 29°37' W 094°60'0 0.0
2018-Apr-12 13:58N 29°37' W 094°60'0 0.0
2018-Apr-12 13:28N 29°37' W 094°60'1 2.1
2018-Apr-12 12:59N 29°37' W 095°01'1 2.9
2018-Apr-12 12:30N 29°37' W 094°59'0 0.3
2018-Apr-12 11:59N 29°37' W 094°59'2 4.0
2018-Apr-12 11:31N 29°36' W 094°57'4 8.4
2018-Apr-12 11:00N 29°40' W 094°59'1 2.5
2018-Apr-12 10:27N 29°41' W 095°00'1 1.8
2018-Apr-12 10:00N 29°41' W 094°59'1 1.5
2018-Apr-12 09:30N 29°41' W 094°59'3 5.5
2018-Apr-12 09:00N 29°42' W 095°01'0 0.0
2018-Apr-12 08:19N 29°42' W 095°01'0 0.0
2018-Apr-12 07:58N 29°42' W 095°01'0 0.0
2018-Apr-12 07:22N 29°42' W 095°01'0 0.0
2018-Apr-12 06:52N 29°42' W 095°01'0 0.0
2018-Apr-12 06:28N 29°42' W 095°01'0 0.0
2018-Apr-12 05:49N 29°42' W 095°01'0 0.0
2018-Apr-12 05:28N 29°42' W 095°01'0 0.0
2018-Apr-12 04:55N 29°42' W 095°01'2 5.3
2018-Apr-12 04:29N 29°44' W 095°03'0 0.4
2018-Apr-12 03:56N 29°44' W 095°03'0 0.0
2018-Apr-12 03:30N 29°44' W 095°03'0 0.0
2018-Apr-12 03:00N 29°44' W 095°03'1 1.9
2018-Apr-12 02:30N 29°45' W 095°04'3 0.8
2018-Apr-11 23:18N 29°45' W 095°07'1 2.8
2018-Apr-11 23:00N 29°44' W 095°08'0 0.4
2018-Apr-11 22:30N 29°44' W 095°08'2 4.0
2018-Apr-11 21:55N 29°46' W 095°06'3 6.9
2018-Apr-11 21:30N 29°44' W 095°03'2 4.5
2018-Apr-11 21:00N 29°42' W 095°01'0 0.0
2018-Apr-11 20:28N 29°42' W 095°01'0 0.0
2018-Apr-11 20:00N 29°42' W 095°01'0 0.2
2018-Apr-11 19:30N 29°42' W 095°01'3 5.3
2018-Apr-11 19:00N 29°44' W 095°03'3 4.2
2018-Apr-11 18:21N 29°45' W 095°06'1 3.3
2018-Apr-11 18:00N 29°44' W 095°08'0 0.1
2018-Apr-11 17:30N 29°44' W 095°08'0 0.0
2018-Apr-11 16:42N 29°44' W 095°08'0 0.3
2018-Apr-11 15:44N 29°44' W 095°07'1 1.5
2018-Apr-11 15:24N 29°45' W 095°07'0 0.0
2018-Apr-11 14:56N 29°45' W 095°07'0 0.0
2018-Apr-11 13:06N 29°44' W 095°07'1 2.9
2018-Apr-11 12:54N 29°45' W 095°06'0 0.1
2018-Apr-11 11:55N 29°45' W 095°06'1 2.3
2018-Apr-11 11:28N 29°46' W 095°05'0 0.6
2018-Apr-11 11:00N 29°46' W 095°05'0 0.2
2018-Apr-11 10:30N 29°46' W 095°05'2 2.1
2018-Apr-11 09:38N 29°45' W 095°07'0 0.0
2018-Apr-11 08:38N 29°45' W 095°07'0 0.0
2018-Apr-11 08:14N 29°45' W 095°07'0 0.0
2018-Apr-11 07:44N 29°45' W 095°07'0 0.0
2018-Apr-11 07:23N 29°45' W 095°07'0 0.0
2018-Apr-11 05:39N 29°45' W 095°07'1 1.5
2018-Apr-11 04:49N 29°44' W 095°08'1 0.5
2018-Apr-11 02:19N 29°45' W 095°07'0 0.6
2018-Apr-11 01:54N 29°44' W 095°07'0 0.4
2018-Apr-11 00:37N 29°45' W 095°06'0 0.0
2018-Apr-10 23:49N 29°45' W 095°06'0 0.0
2018-Apr-10 23:25N 29°45' W 095°06'0 0.3
2018-Apr-10 22:40N 29°44' W 095°07'0 0.0
2018-Apr-10 20:22N 29°44' W 095°07'1 1.6
2018-Apr-10 19:48N 29°44' W 095°08'2 7.5
2018-Apr-10 19:30N 29°46' W 095°06'4 7.9
2018-Apr-10 19:00N 29°44' W 095°01'1 2.8
2018-Apr-10 18:28N 29°42' W 095°01'0 0.0
2018-Apr-10 17:49N 29°42' W 095°01'0 0.5
2018-Apr-10 17:31N 29°42' W 095°01'1 0.8
2018-Apr-10 15:53N 29°44' W 095°01'1 1.2
2018-Apr-10 15:26N 29°43' W 095°01'1 1.8
2018-Apr-10 14:53N 29°42' W 095°01'0 0.0
2018-Apr-10 14:26N 29°42' W 095°01'0 0.0
2018-Apr-10 13:56N 29°42' W 095°01'0 0.0
2018-Apr-10 13:26N 29°42' W 095°01'0 0.0
2018-Apr-10 12:56N 29°42' W 095°01'1 1.2
2018-Apr-10 12:30N 29°42' W 095°01'5 9.0
2018-Apr-10 12:00N 29°38' W 094°58'2 4.4
2018-Apr-10 11:30N 29°37' W 094°60'0 0.8
2018-Apr-10 11:00N 29°37' W 095°00'1 1.7
2018-Apr-10 10:30N 29°37' W 095°01'0 0.0
2018-Apr-10 10:01N 29°37' W 095°01'1 2.1
2018-Apr-10 09:30N 29°37' W 094°60'0 0.0
2018-Apr-10 08:59N 29°37' W 094°60'0 0.0
2018-Apr-10 08:29N 29°37' W 094°60'0 0.0
2018-Apr-10 07:59N 29°37' W 094°60'0 0.0
2018-Apr-10 07:29N 29°37' W 094°60'0 0.0
2018-Apr-10 06:59N 29°37' W 094°60'0 0.0
2018-Apr-10 06:30N 29°37' W 094°60'1 1.4
2018-Apr-10 06:01N 29°37' W 094°59'1 2.5
2018-Apr-10 05:30N 29°37' W 095°01'  
Track history (hours):
 
Tides and Currents Weather Stations Pressure Air Temp Water Temp Dewpoint Dewpoint Depression Visibility Wind Speed Wind Dir Waves Ship Positions

Lamar

Owner: G & H Towing Company, Galveston, TX. More information available from US FCC via Universal Licensing System and Coast Guard Vessel Documentation Center.

Last reported at 2018-Apr-20 05:00 UTC. Time now 2018-Apr-20 05:04 UTC.
Position N 29°45' W 095°07'.

Length 30 m; draft 6.5 m.

Type: Tug. MMSI: 367388340.

Date/timePositionNaut miles runAvg speedWind from/ knotsBaromVisibWave heightAir tempDewpointWater temp
2018-Apr-20 05:00N 29°45' W 095°07'0 0.0
2018-Apr-20 04:00N 29°45' W 095°07'0 0.0
2018-Apr-20 03:22N 29°45' W 095°07'1 1.3
2018-Apr-20 02:26N 29°45' W 095°06'2 4.3
2018-Apr-20 01:56N 29°44' W 095°03'2 1.1
2018-Apr-20 00:18N 29°44' W 095°01'1 1.5
2018-Apr-19 23:56N 29°43' W 095°01'1 2.2
2018-Apr-19 23:30N 29°42' W 095°01'0 0.0
2018-Apr-19 22:55N 29°42' W 095°01'0 0.0
2018-Apr-19 22:30N 29°42' W 095°01'2 4.8
2018-Apr-19 22:00N 29°41' W 094°59'4 6.9
2018-Apr-19 21:30N 29°44' W 095°01'3 6.7
2018-Apr-19 20:58N 29°46' W 095°05'3 4.9
2018-Apr-19 20:25N 29°44' W 095°07'0 0.3
2018-Apr-19 19:44N 29°44' W 095°07'0 0.2
2018-Apr-19 17:36N 29°44' W 095°07'0 0.0
2018-Apr-19 17:19N 29°44' W 095°07'1 1.7
2018-Apr-19 17:00N 29°44' W 095°08'0 0.2
2018-Apr-19 16:30N 29°44' W 095°08'1 1.8
2018-Apr-19 15:57N 29°44' W 095°07'0 0.1
2018-Apr-19 15:02N 29°45' W 095°07'0 0.0
2018-Apr-19 14:44N 29°45' W 095°07'0 0.0
2018-Apr-19 08:37N 29°45' W 095°07'0 0.0
2018-Apr-19 08:31N 29°45' W 095°07'0 0.0
2018-Apr-19 08:00N 29°45' W 095°07'0 0.0
2018-Apr-19 07:30N 29°45' W 095°07'3 1.0
2018-Apr-19 04:36N 29°45' W 095°10'3 7.8
2018-Apr-19 04:15N 29°44' W 095°07'3 0.8
2018-Apr-19 00:23N 29°44' W 095°03'1 3.4
2018-Apr-19 00:00N 29°44' W 095°02'2 3.1
2018-Apr-18 23:28N 29°42' W 095°01'0 0.0
2018-Apr-18 22:34N 29°42' W 095°01'0 0.0
2018-Apr-18 22:19N 29°42' W 095°01'3 2.7
2018-Apr-18 21:24N 29°44' W 095°03'3 6.4
2018-Apr-18 21:00N 29°42' W 095°01'0 0.0
2018-Apr-18 20:28N 29°42' W 095°01'0 0.0
2018-Apr-18 19:58N 29°42' W 095°01'0 0.0
2018-Apr-18 19:22N 29°42' W 095°01'0 0.0
2018-Apr-18 18:10N 29°42' W 095°01'0 0.0
2018-Apr-18 17:48N 29°42' W 095°01'1 5.0
2018-Apr-18 17:30N 29°44' W 095°01'0 0.0
2018-Apr-18 16:59N 29°44' W 095°01'0 0.1
2018-Apr-18 16:30N 29°44' W 095°01'1 1.2
2018-Apr-18 16:00N 29°43' W 095°01'1 1.7
2018-Apr-18 15:30N 29°42' W 095°01'3 7.0
2018-Apr-18 15:01N 29°40' W 094°58'3 6.8
2018-Apr-18 14:30N 29°37' W 095°00'1 1.3
2018-Apr-18 14:00N 29°37' W 095°01'2 4.2
2018-Apr-18 13:31N 29°37' W 094°59'0 0.8
2018-Apr-18 13:00N 29°37' W 094°59'1 1.6
2018-Apr-18 12:29N 29°37' W 095°00'0 0.1
2018-Apr-18 12:00N 29°37' W 095°00'1 1.7
2018-Apr-18 11:30N 29°37' W 095°01'1 1.7
2018-Apr-18 11:01N 29°37' W 095°00'0 0.0
2018-Apr-18 10:28N 29°37' W 095°00'0 0.0
2018-Apr-18 09:58N 29°37' W 095°00'0 0.0
2018-Apr-18 09:28N 29°37' W 095°00'1 1.4
2018-Apr-18 08:59N 29°37' W 094°59'0 0.3
2018-Apr-18 08:30N 29°37' W 094°59'0 0.6
2018-Apr-18 07:48N 29°37' W 094°60'0 0.0
2018-Apr-18 07:12N 29°37' W 094°60'0 0.0
2018-Apr-18 06:57N 29°37' W 094°60'0 0.0
2018-Apr-18 05:57N 29°37' W 094°60'2 4.6
2018-Apr-18 05:30N 29°37' W 094°58'2 4.9
2018-Apr-18 05:00N 29°37' W 095°00'0 0.8
2018-Apr-18 04:29N 29°37' W 094°60'0 0.0
2018-Apr-18 03:59N 29°37' W 094°60'0 0.0
2018-Apr-18 03:23N 29°37' W 094°60'0 0.0
2018-Apr-18 03:01N 29°37' W 094°60'0 0.0
2018-Apr-18 02:30N 29°37' W 094°60'0 0.1
2018-Apr-18 02:01N 29°37' W 094°60'4 7.8
2018-Apr-18 01:31N 29°41' W 094°59'4 4.7
2018-Apr-18 00:41N 29°44' W 095°01'0 1.5
2018-Apr-18 00:29N 29°43' W 095°01'3 5.5
2018-Apr-18 00:01N 29°41' W 094°59'2 3.5
2018-Apr-17 23:30N 29°40' W 094°58'1 2.9
2018-Apr-17 23:00N 29°41' W 094°60'0 0.0
2018-Apr-17 22:30N 29°41' W 094°60'1 1.7
2018-Apr-17 22:01N 29°41' W 094°59'1 1.4
2018-Apr-17 21:31N 29°40' W 094°59'1 1.8
2018-Apr-17 20:47N 29°41' W 094°59'2 7.3
2018-Apr-17 20:30N 29°39' W 094°58'3 5.7
2018-Apr-17 20:00N 29°37' W 095°00'1 1.9
2018-Apr-17 19:30N 29°37' W 095°01'0 0.8
2018-Apr-17 19:00N 29°37' W 095°01'1 1.0
2018-Apr-17 18:30N 29°37' W 095°01'0 0.0
2018-Apr-17 18:00N 29°37' W 095°01'0 0.7
2018-Apr-17 17:30N 29°37' W 095°01'0 0.2
2018-Apr-17 17:00N 29°37' W 095°01'0 0.0
2018-Apr-17 16:30N 29°37' W 095°01'0 0.0
2018-Apr-17 16:00N 29°37' W 095°01'0 0.0
2018-Apr-17 15:30N 29°37' W 095°01'0 0.1
2018-Apr-17 15:00N 29°37' W 095°01'0 0.7
2018-Apr-17 14:30N 29°37' W 095°01'0 0.7
2018-Apr-17 13:58N 29°37' W 095°01'0 0.0
2018-Apr-17 13:28N 29°37' W 095°01'0 0.0
2018-Apr-17 12:58N 29°37' W 095°01'0 0.0
2018-Apr-17 12:28N 29°37' W 095°01'0 0.0
2018-Apr-17 11:58N 29°37' W 095°01'0 0.0
2018-Apr-17 11:28N 29°37' W 095°01'0 0.0
2018-Apr-17 11:01N 29°37' W 095°01'0 1.0
2018-Apr-17 10:31N 29°37' W 095°01'1 1.0
2018-Apr-17 10:00N 29°37' W 095°01'2 4.4
2018-Apr-17 09:30N 29°37' W 094°59'3 6.6
2018-Apr-17 09:01N 29°35' W 094°56'4 7.6
2018-Apr-17 08:30N 29°37' W 094°59'0 0.0
2018-Apr-17 08:00N 29°37' W 094°59'1 2.3
2018-Apr-17 07:31N 29°37' W 094°58'1 2.2
2018-Apr-17 07:00N 29°36' W 094°57'3 5.5
2018-Apr-17 06:28N 29°37' W 095°01'0 0.0
2018-Apr-17 05:55N 29°37' W 095°01'0 0.0
2018-Apr-17 05:28N 29°37' W 095°01'0 0.0
2018-Apr-17 04:58N 29°37' W 095°01'0 0.0
2018-Apr-17 04:28N 29°37' W 095°01'0 0.0
2018-Apr-17 03:58N 29°37' W 095°01'0 0.0
2018-Apr-17 03:28N 29°37' W 095°01'0 0.0
2018-Apr-17 02:58N 29°37' W 095°01'0 0.0
2018-Apr-17 02:28N 29°37' W 095°01'0 0.0
2018-Apr-17 01:58N 29°37' W 095°01'0 0.0
2018-Apr-17 01:28N 29°37' W 095°01'0 0.0
2018-Apr-17 00:55N 29°37' W 095°01'0 0.0
2018-Apr-17 00:28N 29°37' W 095°01'0 0.0
2018-Apr-16 23:58N 29°37' W 095°01'0 0.0
2018-Apr-16 23:28N 29°37' W 095°01'0 0.7
2018-Apr-16 23:01N 29°37' W 095°00'0 0.0
2018-Apr-16 22:30N 29°37' W 095°00'1 2.0
2018-Apr-16 22:00N 29°37' W 095°01'1 2.4
2018-Apr-16 21:30N 29°37' W 094°60'0 0.1
2018-Apr-16 21:00N 29°37' W 094°60'2 4.9
2018-Apr-16 20:30N 29°39' W 094°58'5 8.7
2018-Apr-16 19:59N 29°42' W 095°01'0 0.0
2018-Apr-16 19:24N 29°42' W 095°01'2 3.9
2018-Apr-16 19:00N 29°44' W 095°02'1 2.5
2018-Apr-16 18:30N 29°44' W 095°03'0 0.2
2018-Apr-16 18:01N 29°44' W 095°03'2 3.0
2018-Apr-16 17:30N 29°44' W 095°01'0 0.0
2018-Apr-16 16:56N 29°44' W 095°01'0 0.1
2018-Apr-16 15:48N 29°44' W 095°01'0 1.7
2018-Apr-16 15:31N 29°43' W 095°01'2 4.4
2018-Apr-16 15:00N 29°42' W 094°59'1 1.8
2018-Apr-16 14:30N 29°41' W 095°00'0 0.1
2018-Apr-16 14:00N 29°41' W 095°00'1 1.8
2018-Apr-16 13:30N 29°42' W 094°60'1 2.9
2018-Apr-16 13:00N 29°42' W 095°01'0 0.0
2018-Apr-16 12:27N 29°42' W 095°01'2 4.0
2018-Apr-16 12:00N 29°41' W 094°60'0 0.0
2018-Apr-16 11:30N 29°41' W 094°60'0 0.8
2018-Apr-16 11:00N 29°41' W 094°59'1 2.9
2018-Apr-16 10:30N 29°40' W 094°58'3 6.0
2018-Apr-16 10:00N 29°37' W 094°58'4 7.9
2018-Apr-16 09:30N 29°34' W 094°55'611.6
2018-Apr-16 09:00N 29°29' W 094°51'4 1.0
2018-Apr-16 04:25N 29°32' W 094°54'410.0
2018-Apr-16 04:00N 29°36' W 094°57'510.3
2018-Apr-16 03:30N 29°41' W 094°59'3 5.0
2018-Apr-16 03:00N 29°42' W 095°01'0 0.0
2018-Apr-16 02:30N 29°42' W 095°01'0 0.0
2018-Apr-16 01:57N 29°42' W 095°01'0 0.0
2018-Apr-16 01:30N 29°42' W 095°01'0 0.0
2018-Apr-16 01:00N 29°42' W 095°01'0 0.0
2018-Apr-16 00:30N 29°42' W 095°01'0 0.0
2018-Apr-16 00:00N 29°42' W 095°01'0 0.0
2018-Apr-15 23:30N 29°42' W 095°01'0 0.0
2018-Apr-15 23:00N 29°42' W 095°01'0 0.0
2018-Apr-15 22:30N 29°42' W 095°01'0 0.0
2018-Apr-15 21:54N 29°42' W 095°01'0 0.0
2018-Apr-15 21:19N 29°42' W 095°01'0 0.0
2018-Apr-15 21:00N 29°42' W 095°01'0 0.0
2018-Apr-15 20:24N 29°42' W 095°01'2 5.9
2018-Apr-15 20:00N 29°41' W 094°59'3 5.5
2018-Apr-15 19:30N 29°43' W 095°01'3 6.1
2018-Apr-15 19:00N 29°45' W 095°04'3 4.8
2018-Apr-15 18:28N 29°44' W 095°07'1 1.2
2018-Apr-15 17:57N 29°44' W 095°07'0 0.6
2018-Apr-15 17:29N 29°44' W 095°07'1 2.6
2018-Apr-15 17:00N 29°45' W 095°06'0 0.0
2018-Apr-15 16:28N 29°45' W 095°06'2 5.0
2018-Apr-15 15:58N 29°44' W 095°03'2 2.8
2018-Apr-15 15:23N 29°44' W 095°01'0 0.0
2018-Apr-15 14:52N 29°44' W 095°01'2 4.2
2018-Apr-15 14:31N 29°42' W 095°01'0 0.0
2018-Apr-15 13:58N 29°42' W 095°01'0 0.0
2018-Apr-15 13:31N 29°42' W 095°01'0 0.0
2018-Apr-15 13:00N 29°42' W 095°01'4 7.5
2018-Apr-15 12:30N 29°39' W 094°58'3 5.5
2018-Apr-15 11:58N 29°37' W 094°59'0 0.0
2018-Apr-15 10:58N 29°37' W 094°59'1 1.9
2018-Apr-15 10:30N 29°37' W 094°58'1 1.4
2018-Apr-15 10:00N 29°37' W 094°58'2 4.0
2018-Apr-15 09:30N 29°37' W 094°60'0 0.0
2018-Apr-15 09:00N 29°37' W 094°60'0 0.0
2018-Apr-15 08:30N 29°37' W 094°60'0 0.0
2018-Apr-15 07:54N 29°37' W 094°60'0 0.0
2018-Apr-15 07:27N 29°37' W 094°60'1 2.8
2018-Apr-15 07:01N 29°37' W 095°01'0 0.0
2018-Apr-15 06:31N 29°37' W 095°01'1 2.9
2018-Apr-15 06:01N 29°37' W 094°60'0 0.1
2018-Apr-15 04:35N 29°37' W 094°60'0 0.0
2018-Apr-15 04:17N 29°37' W 094°60'0 0.0
2018-Apr-15 03:56N 29°37' W 094°60'0 0.0
2018-Apr-15 03:29N 29°37' W 094°60'0 0.0
2018-Apr-15 02:56N 29°37' W 094°60'0 0.0
2018-Apr-15 02:29N 29°37' W 094°60'0 0.9
2018-Apr-15 02:00N 29°37' W 094°59'3 6.1
2018-Apr-15 01:30N 29°40' W 094°58'2 3.1
2018-Apr-15 01:00N 29°41' W 094°60'0 0.4
2018-Apr-15 00:04N 29°41' W 095°00'0 0.1
2018-Apr-14 23:58N 29°41' W 095°00'0 0.0
2018-Apr-14 23:25N 29°41' W 095°00'1 2.8
2018-Apr-14 23:00N 29°41' W 094°59'4 7.6
2018-Apr-14 22:30N 29°37' W 094°59'1 2.1
2018-Apr-14 22:00N 29°37' W 095°00'1 1.9
2018-Apr-14 21:30N 29°37' W 095°01'2 4.0
2018-Apr-14 21:00N 29°37' W 094°59'0 0.8
2018-Apr-14 20:30N 29°37' W 094°60'3 6.1
2018-Apr-14 20:00N 29°40' W 094°58'6 9.0
2018-Apr-14 19:24N 29°44' W 095°03'4 6.8
2018-Apr-14 18:53N 29°45' W 095°06'0 0.2
2018-Apr-14 17:50N 29°44' W 095°07'1 2.3
2018-Apr-14 17:20N 29°45' W 095°06'2 6.1
2018-Apr-14 16:58N 29°44' W 095°03'3 6.1
2018-Apr-14 16:30N 29°42' W 095°01'0 0.0
2018-Apr-14 15:59N 29°42' W 095°01'0 0.0
2018-Apr-14 15:30N 29°42' W 095°01'0 0.0
2018-Apr-14 15:00N 29°42' W 095°01'0 0.0
2018-Apr-14 14:30N 29°42' W 095°01'0 0.0
2018-Apr-14 14:00N 29°42' W 095°01'0 0.0
2018-Apr-14 13:30N 29°42' W 095°01'0 0.0
2018-Apr-14 12:59N 29°42' W 095°01'0 0.0
2018-Apr-14 12:30N 29°42' W 095°01'5 2.3
2018-Apr-14 10:11N 29°45' W 095°07'0 0.0
2018-Apr-14 09:56N 29°45' W 095°07'0 0.0
2018-Apr-14 09:29N 29°45' W 095°07'0 0.0
2018-Apr-14 00:06N 29°44' W 095°07'1 5.2
2018-Apr-14 00:00N 29°44' W 095°08'0 0.1
2018-Apr-13 23:08N 29°44' W 095°07'0 2.2
2018-Apr-13 23:00N 29°44' W 095°07'2 4.8
2018-Apr-13 22:30N 29°46' W 095°05'4 7.1
2018-Apr-13 22:00N 29°44' W 095°02'3 7.0
2018-Apr-13 21:30N 29°41' W 094°59'0 0.9
2018-Apr-13 21:00N 29°41' W 094°59'0 0.8
2018-Apr-13 20:29N 29°41' W 094°60'0 0.0
2018-Apr-13 19:59N 29°41' W 094°60'0 0.0
2018-Apr-13 19:29N 29°41' W 094°60'0 0.0
2018-Apr-13 18:59N 29°41' W 094°60'1 2.1
2018-Apr-13 18:30N 29°41' W 094°59'4 7.8
2018-Apr-13 18:00N 29°37' W 094°58'2 3.4
2018-Apr-13 17:30N 29°37' W 095°00'0 0.1
2018-Apr-13 17:00N 29°37' W 095°00'0 0.0
2018-Apr-13 16:29N 29°37' W 095°00'2 3.8
2018-Apr-13 16:00N 29°37' W 094°58'4 8.4
2018-Apr-13 15:30N 29°41' W 094°59'0 0.8
2018-Apr-13 14:58N 29°41' W 094°60'0 0.0
2018-Apr-13 14:28N 29°41' W 094°60'0 0.0
2018-Apr-13 13:58N 29°41' W 094°60'0 0.0
2018-Apr-13 13:28N 29°41' W 094°60'0 0.0
2018-Apr-13 12:58N 29°41' W 094°60'0 0.0
2018-Apr-13 12:29N 29°41' W 094°60'1 1.2
2018-Apr-13 11:59N 29°41' W 095°01'0 0.1
2018-Apr-13 11:26N 29°41' W 095°00'1 3.3
2018-Apr-13 11:00N 29°41' W 094°59'1 1.4
2018-Apr-13 10:25N 29°41' W 094°60'0 0.0
2018-Apr-13 09:58N 29°41' W 094°60'0 0.0
2018-Apr-13 09:22N 29°41' W 094°60'0 0.0
2018-Apr-13 08:58N 29°41' W 094°60'0 0.0
2018-Apr-13 08:19N 29°41' W 094°60'0 0.3
2018-Apr-13 08:00N 29°41' W 094°60'3 5.2
2018-Apr-13 07:30N 29°39' W 094°58'3 6.5
2018-Apr-13 07:00N 29°37' W 095°01'0 0.2
2018-Apr-13 06:29N 29°37' W 095°01'0 0.0
2018-Apr-13 05:59N 29°37' W 095°01'0 0.0
2018-Apr-13 05:29N 29°37' W 095°01'0 0.0
2018-Apr-13 04:59N 29°37' W 095°01'0 0.0
2018-Apr-13 04:29N 29°37' W 095°01'0 0.0
2018-Apr-13 03:59N 29°37' W 095°01'0 0.0
2018-Apr-13 03:29N 29°37' W 095°01'0 0.0
2018-Apr-13 02:59N 29°37' W 095°01'0 0.0
2018-Apr-13 02:29N 29°37' W 095°01'0 0.0
2018-Apr-13 01:59N 29°37' W 095°01'0 0.0
2018-Apr-13 01:29N 29°37' W 095°01'1 1.3
2018-Apr-13 01:00N 29°37' W 095°00'0 0.3
2018-Apr-13 00:30N 29°37' W 095°00'0 0.0
2018-Apr-13 00:00N 29°37' W 095°00'0 0.0
2018-Apr-12 23:30N 29°37' W 095°00'0 0.0
2018-Apr-12 23:00N 29°37' W 095°00'0 0.0
2018-Apr-12 22:30N 29°37' W 095°00'0 0.0
2018-Apr-12 22:00N 29°37' W 095°00'1 1.4
2018-Apr-12 21:30N 29°37' W 094°59'1 1.4
2018-Apr-12 21:00N 29°37' W 095°00'0 0.0
2018-Apr-12 20:30N 29°37' W 095°00'0 0.0
2018-Apr-12 20:00N 29°37' W 095°00'0 0.1
2018-Apr-12 19:30N 29°37' W 095°00'0 0.0
2018-Apr-12 19:00N 29°37' W 095°00'0 0.3
2018-Apr-12 18:30N 29°37' W 095°00'0 0.3
2018-Apr-12 18:00N 29°37' W 095°00'1 1.9
2018-Apr-12 17:30N 29°37' W 095°01'1 1.8
2018-Apr-12 17:01N 29°37' W 095°00'2 4.4
2018-Apr-12 16:30N 29°37' W 094°58'3 6.5
2018-Apr-12 16:00N 29°34' W 094°55'3 6.3
2018-Apr-12 15:30N 29°37' W 094°58'2 4.0
2018-Apr-12 14:58N 29°37' W 094°60'0 0.0
2018-Apr-12 14:28N 29°37' W 094°60'0 0.0
2018-Apr-12 13:58N 29°37' W 094°60'0 0.0
2018-Apr-12 13:28N 29°37' W 094°60'1 2.1
2018-Apr-12 12:59N 29°37' W 095°01'1 2.9
2018-Apr-12 12:30N 29°37' W 094°59'0 0.3
2018-Apr-12 11:59N 29°37' W 094°59'2 4.0
2018-Apr-12 11:31N 29°36' W 094°57'4 8.4
2018-Apr-12 11:00N 29°40' W 094°59'1 2.5
2018-Apr-12 10:27N 29°41' W 095°00'1 1.8
2018-Apr-12 10:00N 29°41' W 094°59'1 1.5
2018-Apr-12 09:30N 29°41' W 094°59'3 5.5
2018-Apr-12 09:00N 29°42' W 095°01'0 0.0
2018-Apr-12 08:19N 29°42' W 095°01'0 0.0
2018-Apr-12 07:58N 29°42' W 095°01'0 0.0
2018-Apr-12 07:22N 29°42' W 095°01'0 0.0
2018-Apr-12 06:52N 29°42' W 095°01'0 0.0
2018-Apr-12 06:28N 29°42' W 095°01'0 0.0
2018-Apr-12 05:49N 29°42' W 095°01'0 0.0
2018-Apr-12 05:28N 29°42' W 095°01'0 0.0
2018-Apr-12 04:55N 29°42' W 095°01'2 5.3
2018-Apr-12 04:29N 29°44' W 095°03'0 0.4
2018-Apr-12 03:56N 29°44' W 095°03'0 0.0
2018-Apr-12 03:30N 29°44' W 095°03'0 0.0
2018-Apr-12 03:00N 29°44' W 095°03'1 1.9
2018-Apr-12 02:30N 29°45' W 095°04'3 0.8
2018-Apr-11 23:18N 29°45' W 095°07'1 2.8
2018-Apr-11 23:00N 29°44' W 095°08'0 0.4
2018-Apr-11 22:30N 29°44' W 095°08'2 4.0
2018-Apr-11 21:55N 29°46' W 095°06'3 6.9
2018-Apr-11 21:30N 29°44' W 095°03'2 4.5
2018-Apr-11 21:00N 29°42' W 095°01'0 0.0
2018-Apr-11 20:28N 29°42' W 095°01'0 0.0
2018-Apr-11 20:00N 29°42' W 095°01'0 0.2
2018-Apr-11 19:30N 29°42' W 095°01'3 5.3
2018-Apr-11 19:00N 29°44' W 095°03'3 4.2
2018-Apr-11 18:21N 29°45' W 095°06'1 3.3
2018-Apr-11 18:00N 29°44' W 095°08'0 0.1
2018-Apr-11 17:30N 29°44' W 095°08'0 0.0
2018-Apr-11 16:42N 29°44' W 095°08'0 0.3
2018-Apr-11 15:44N 29°44' W 095°07'1 1.5
2018-Apr-11 15:24N 29°45' W 095°07'0 0.0
2018-Apr-11 14:56N 29°45' W 095°07'0 0.0
2018-Apr-11 13:06N 29°44' W 095°07'1 2.9
2018-Apr-11 12:54N 29°45' W 095°06'0 0.1
2018-Apr-11 11:55N 29°45' W 095°06'1 2.3
2018-Apr-11 11:28N 29°46' W 095°05'0 0.6
2018-Apr-11 11:00N 29°46' W 095°05'0 0.2
2018-Apr-11 10:30N 29°46' W 095°05'2 2.1
2018-Apr-11 09:38N 29°45' W 095°07'0 0.0
2018-Apr-11 08:38N 29°45' W 095°07'0 0.0
2018-Apr-11 08:14N 29°45' W 095°07'0 0.0
2018-Apr-11 07:44N 29°45' W 095°07'0 0.0
2018-Apr-11 07:23N 29°45' W 095°07'0 0.0
2018-Apr-11 05:39N 29°45' W 095°07'1 1.5
2018-Apr-11 04:49N 29°44' W 095°08'1 0.5
2018-Apr-11 02:19N 29°45' W 095°07'0 0.6
2018-Apr-11 01:54N 29°44' W 095°07'0 0.4
2018-Apr-11 00:37N 29°45' W 095°06'0 0.0
2018-Apr-10 23:49N 29°45' W 095°06'0 0.0
2018-Apr-10 23:25N 29°45' W 095°06'0 0.3
2018-Apr-10 22:40N 29°44' W 095°07'0 0.0
2018-Apr-10 20:22N 29°44' W 095°07'1 1.6
2018-Apr-10 19:48N 29°44' W 095°08'2 7.5
2018-Apr-10 19:30N 29°46' W 095°06'4 7.9
2018-Apr-10 19:00N 29°44' W 095°01'1 2.8
2018-Apr-10 18:28N 29°42' W 095°01'0 0.0
2018-Apr-10 17:49N 29°42' W 095°01'0 0.5
2018-Apr-10 17:31N 29°42' W 095°01'1 0.8
2018-Apr-10 15:53N 29°44' W 095°01'1 1.2
2018-Apr-10 15:26N 29°43' W 095°01'1 1.8
2018-Apr-10 14:53N 29°42' W 095°01'0 0.0
2018-Apr-10 14:26N 29°42' W 095°01'0 0.0
2018-Apr-10 13:56N 29°42' W 095°01'0 0.0
2018-Apr-10 13:26N 29°42' W 095°01'0 0.0
2018-Apr-10 12:56N 29°42' W 095°01'1 1.2
2018-Apr-10 12:30N 29°42' W 095°01'5 9.0
2018-Apr-10 12:00N 29°38' W 094°58'2 4.4
2018-Apr-10 11:30N 29°37' W 094°60'0 0.8
2018-Apr-10 11:00N 29°37' W 095°00'1 1.7
2018-Apr-10 10:30N 29°37' W 095°01'0 0.0
2018-Apr-10 10:01N 29°37' W 095°01'1 2.1
2018-Apr-10 09:30N 29°37' W 094°60'0 0.0
2018-Apr-10 08:59N 29°37' W 094°60'0 0.0
2018-Apr-10 08:29N 29°37' W 094°60'0 0.0
2018-Apr-10 07:59N 29°37' W 094°60'0 0.0
2018-Apr-10 07:29N 29°37' W 094°60'0 0.0
2018-Apr-10 06:59N 29°37' W 094°60'0 0.0
2018-Apr-10 06:30N 29°37' W 094°60'1 1.4
2018-Apr-10 06:01N 29°37' W 094°59'1 2.5
2018-Apr-10 05:30N 29°37' W 095°01'  

Dump ship's entire track history